Time;durP1;ratioP1;P1;durP2;ratioP2;P2;SDS_P1;SDS_P2;PMS_P1;PMS_P2;Temp;Humidity;BMP_temperature;BMP_pressure;BME280_temperature;BME280_humidity;BME280_pressure;Samples;Min_cycle;Max_cycle;Signal;HPM_P1;HPM_P2
2022/12/18 00:01:40;;;;;;;66.57;29.40;;;;;;;;;;5007873;28;21877;-76
2022/12/18 00:04:08;;;;;;;80.43;34.07;;;;;;;;;;5005226;28;20968;-76
2022/12/18 00:06:35;;;;;;;65.53;30.73;;;;;;;;;;5009764;28;20516;-71
2022/12/18 00:09:02;;;;;;;68.97;30.53;;;;;;;;;;4999598;28;20438;-76
2022/12/18 00:11:29;;;;;;;61.87;28.20;;;;;;;;;;4999147;28;20458;-76
2022/12/18 00:13:56;;;;;;;80.00;32.87;;;;;;;;;;5000910;28;20508;-74
2022/12/18 00:16:24;;;;;;;75.07;31.23;;;;;;;;;;5002421;28;20474;-76
2022/12/18 00:18:52;;;;;;;74.17;32.07;;;;;;;;;;5000357;28;20534;-76
2022/12/18 00:21:19;;;;;;;69.37;30.10;;;;;;;;;;5005678;28;20450;-76
2022/12/18 00:23:46;;;;;;;68.57;30.30;;;;;;;;;;5001504;28;20434;-76
2022/12/18 00:26:14;;;;;;;80.37;33.20;;;;;;;;;;5005151;28;20978;-73
2022/12/18 00:28:42;;;;;;;75.80;32.20;;;;;;;;;;5001841;28;20433;-76
2022/12/18 00:31:10;;;;;;;78.23;32.67;;;;;;;;;;5002383;28;20457;-75
2022/12/18 00:33:36;;;;;;;76.03;37.72;;;;;;;;;;5002973;28;20441;-76
2022/12/18 00:36:02;;;;;;;74.23;33.33;;;;;;;;;;5000085;28;20203;-75
2022/12/18 00:38:29;;;;;;;70.93;35.45;;;;;;;;;;4998580;28;20858;-77
2022/12/18 00:40:55;;;;;;;70.13;33.27;;;;;;;;;;5003181;28;20214;-75
2022/12/18 00:43:21;;;;;;;70.90;31.50;;;;;;;;;;5002175;28;20478;-77
2022/12/18 00:45:48;;;;;;;69.70;30.97;;;;;;;;;;5003291;28;20509;-76
2022/12/18 00:48:14;;;;;;;72.53;30.93;;;;;;;;;;4997451;28;20510;-77
2022/12/18 00:50:40;;;;;;;69.00;29.87;;;;;;;;;;4981768;28;20524;-76
2022/12/18 00:53:09;;;;;;;72.73;31.73;;;;;;;;;;4987016;28;20806;-77
2022/12/18 00:55:37;;;;;;;67.43;30.03;;;;;;;;;;5000988;28;20441;-76
2022/12/18 00:58:03;;;;;;;66.60;29.83;;;;;;;;;;4999278;28;20469;-76
2022/12/18 01:00:29;;;;;;;71.17;30.83;;;;;;;;;;4997163;28;20447;-76
2022/12/18 01:02:56;;;;;;;61.07;28.70;;;;;;;;;;5000228;28;20429;-76
2022/12/18 01:05:22;;;;;;;65.37;28.30;;;;;;;;;;5000691;28;20478;-76
2022/12/18 01:07:48;;;;;;;66.80;32.88;;;;;;;;;;5001756;28;20905;-77
2022/12/18 01:10:14;;;;;;;61.67;28.77;;;;;;;;;;5000630;28;20207;-76
2022/12/18 01:12:40;;;;;;;58.97;27.73;;;;;;;;;;4999729;28;20442;-76
2022/12/18 01:15:13;;;;;;;66.07;28.70;;;;;;;;;;5004644;28;20526;-77
2022/12/18 01:17:40;;;;;;;61.10;27.50;;;;;;;;;;5005534;28;20449;-76
2022/12/18 01:20:06;;;;;;;66.10;27.97;;;;;;;;;;5000385;28;20454;-76
2022/12/18 01:22:32;;;;;;;57.57;26.70;;;;;;;;;;4999032;28;20444;-76
2022/12/18 01:25:00;;;;;;;57.43;27.63;;;;;;;;;;4999475;28;20540;-76
2022/12/18 01:27:27;;;;;;;53.77;25.27;;;;;;;;;;4996330;28;20437;-77
2022/12/18 01:29:53;;;;;;;58.37;27.53;;;;;;;;;;4999120;28;20850;-77
2022/12/18 01:32:20;;;;;;;62.70;28.33;;;;;;;;;;5000488;28;20447;-77
2022/12/18 01:34:46;;;;;;;62.37;27.50;;;;;;;;;;5003453;28;21147;-77
2022/12/18 01:37:12;;;;;;;61.43;27.80;;;;;;;;;;4999254;28;20501;-76
2022/12/18 01:39:38;;;;;;;62.13;29.37;;;;;;;;;;4999640;28;20433;-76
2022/12/18 01:42:09;;;;;;;63.33;29.17;;;;;;;;;;5000607;28;20442;-75
2022/12/18 01:44:55;;;;;;;71.63;30.83;;;;;;;;;;4999590;28;20438;-76
2022/12/18 01:47:24;;;;;;;62.27;28.80;;;;;;;;;;5000220;28;20441;-74
2022/12/18 01:49:51;;;;;;;65.33;28.43;;;;;;;;;;5001375;28;21025;-77
2022/12/18 01:52:17;;;;;;;78.77;31.80;;;;;;;;;;5002814;28;20445;-76
2022/12/18 01:54:44;;;;;;;55.83;25.97;;;;;;;;;;4971521;28;20568;-77
2022/12/18 01:57:10;;;;;;;58.90;27.70;;;;;;;;;;5001996;28;20462;-77
2022/12/18 01:59:37;;;;;;;89.25;32.42;;;;;;;;;;4985828;28;20787;-76
2022/12/18 02:02:03;;;;;;;62.90;29.60;;;;;;;;;;4999469;28;20743;-76
2022/12/18 02:04:30;;;;;;;68.63;30.37;;;;;;;;;;4998996;28;21251;-77
2022/12/18 02:07:17;;;;;;;66.60;28.07;;;;;;;;;;4996966;28;20446;-76
2022/12/18 02:10:00;;;;;;;72.27;30.87;;;;;;;;;;5001755;28;20465;-77
2022/12/18 02:12:32;;;;;;;69.73;29.97;;;;;;;;;;5000835;28;20442;-76
2022/12/18 02:15:14;;;;;;;71.77;30.20;;;;;;;;;;4999912;28;20505;-75
2022/12/18 02:17:49;;;;;;;61.93;27.27;;;;;;;;;;4997707;28;20466;-76
2022/12/18 02:20:22;;;;;;;62.03;27.83;;;;;;;;;;4995347;28;20458;-76
2022/12/18 02:23:07;;;;;;;61.97;28.23;;;;;;;;;;4997830;28;20435;-76
2022/12/18 02:25:39;;;;;;;64.27;29.23;;;;;;;;;;5004388;28;20456;-77
2022/12/18 02:28:07;;;;;;;68.80;30.10;;;;;;;;;;4999017;28;20437;-77
2022/12/18 02:30:35;;;;;;;62.60;28.37;;;;;;;;;;4999592;28;20474;-77
2022/12/18 02:33:04;;;;;;;68.03;30.93;;;;;;;;;;4998936;28;20447;-76
2022/12/18 02:35:31;;;;;;;59.87;28.43;;;;;;;;;;4997477;28;20439;-76
2022/12/18 02:37:59;;;;;;;58.40;26.87;;;;;;;;;;4999772;28;20473;-76
2022/12/18 02:40:29;;;;;;;61.40;27.67;;;;;;;;;;4998361;28;20450;-76
2022/12/18 02:43:03;;;;;;;64.17;28.50;;;;;;;;;;5010978;28;20432;-76
2022/12/18 02:45:29;;;;;;;64.40;29.03;;;;;;;;;;5005266;28;20426;-74
2022/12/18 02:47:56;;;;;;;73.57;31.40;;;;;;;;;;5002909;28;20435;-77
2022/12/18 02:50:36;;;;;;;59.60;28.20;;;;;;;;;;4999443;28;20450;-74
2022/12/18 02:53:22;;;;;;;63.57;28.27;;;;;;;;;;4989077;28;20426;-76
2022/12/18 02:56:10;;;;;;;67.70;29.00;;;;;;;;;;5006440;28;20845;-77
2022/12/18 02:59:07;;;;;;;62.17;27.07;;;;;;;;;;5002798;28;20454;-76
2022/12/18 03:01:54;;;;;;;75.47;29.53;;;;;;;;;;5014523;28;20457;-76
2022/12/18 03:04:27;;;;;;;62.67;27.87;;;;;;;;;;4996965;28;20459;-76
2022/12/18 03:06:57;;;;;;;67.80;29.73;;;;;;;;;;4999359;28;20961;-75
2022/12/18 03:09:33;;;;;;;60.23;27.83;;;;;;;;;;5011729;28;20441;-76
2022/12/18 03:14:51;;;;;;;64.63;27.97;;;;;;;;;;4999358;28;20790;-75
2022/12/18 03:17:21;;;;;;;66.17;27.50;;;;;;;;;;5004650;28;20472;-76
2022/12/18 03:19:47;;;;;;;61.83;28.90;;;;;;;;;;5004503;28;20437;-76
2022/12/18 03:22:16;;;;;;;65.33;29.00;;;;;;;;;;4998597;28;20446;-74
2022/12/18 03:24:49;;;;;;;55.37;26.63;;;;;;;;;;4996904;28;20576;-75
2022/12/18 03:27:18;;;;;;;63.00;28.20;;;;;;;;;;5000162;28;20466;-76
2022/12/18 03:29:50;;;;;;;54.90;25.23;;;;;;;;;;4994583;28;20980;-76
2022/12/18 03:32:26;;;;;;;56.87;26.43;;;;;;;;;;4987945;28;21084;-76
2022/12/18 03:34:54;;;;;;;59.27;25.83;;;;;;;;;;5011552;28;20988;-75
2022/12/18 03:37:22;;;;;;;61.90;27.57;;;;;;;;;;5000871;28;20462;-76
2022/12/18 03:39:48;;;;;;;63.17;27.83;;;;;;;;;;5002325;28;20447;-76
2022/12/18 03:42:22;;;;;;;59.93;26.40;;;;;;;;;;5009395;28;20429;-76
2022/12/18 03:45:00;;;;;;;60.87;26.83;;;;;;;;;;5008538;28;21190;-75
2022/12/18 03:47:32;;;;;;;58.50;25.93;;;;;;;;;;4998017;28;20976;-75
2022/12/18 03:50:25;;;;;;;63.00;26.83;;;;;;;;;;5002657;28;20434;-76
2022/12/18 03:52:54;;;;;;;55.17;26.03;;;;;;;;;;4998501;28;20997;-75
2022/12/18 03:55:22;;;;;;;61.60;26.73;;;;;;;;;;5000436;28;20433;-75
2022/12/18 03:57:54;;;;;;;56.57;26.60;;;;;;;;;;5001598;28;20473;-76
2022/12/18 04:00:21;;;;;;;60.63;27.57;;;;;;;;;;4998132;28;20454;-74
2022/12/18 04:03:02;;;;;;;65.10;28.03;;;;;;;;;;5002983;28;20430;-75
2022/12/18 04:05:36;;;;;;;58.70;27.60;;;;;;;;;;5001680;28;20444;-75
2022/12/18 04:08:03;;;;;;;62.73;27.63;;;;;;;;;;4984374;28;20434;-75
2022/12/18 04:10:35;;;;;;;62.00;27.67;;;;;;;;;;4997750;28;20539;-76
2022/12/18 04:13:02;;;;;;;64.47;27.67;;;;;;;;;;5011096;28;20541;-74
2022/12/18 04:15:29;;;;;;;64.53;28.23;;;;;;;;;;5000263;28;20965;-76
2022/12/18 04:17:57;;;;;;;65.07;30.07;;;;;;;;;;4996309;28;20502;-75
2022/12/18 04:20:28;;;;;;;61.87;28.17;;;;;;;;;;4985449;28;20447;-76
2022/12/18 04:22:54;;;;;;;57.63;27.07;;;;;;;;;;5001803;28;20442;-76
2022/12/18 04:25:20;;;;;;;62.33;27.73;;;;;;;;;;4999453;28;20426;-75
2022/12/18 04:27:57;;;;;;;55.70;26.10;;;;;;;;;;4995598;28;20484;-76
2022/12/18 04:30:23;;;;;;;56.93;25.10;;;;;;;;;;4999456;28;20461;-75
2022/12/18 04:32:49;;;;;;;63.33;26.70;;;;;;;;;;4999481;28;20442;-76
2022/12/18 04:35:16;;;;;;;69.47;29.27;;;;;;;;;;4999719;28;20795;-76
2022/12/18 04:37:43;;;;;;;61.50;26.10;;;;;;;;;;4996694;28;20556;-73
2022/12/18 04:40:10;;;;;;;61.93;27.00;;;;;;;;;;5002252;28;20565;-76
2022/12/18 04:42:41;;;;;;;57.23;27.10;;;;;;;;;;4996968;28;20450;-74
2022/12/18 04:45:08;;;;;;;59.90;26.83;;;;;;;;;;4988632;28;20458;-75
2022/12/18 04:47:34;;;;;;;63.67;27.30;;;;;;;;;;4998368;28;20456;-76
2022/12/18 04:50:00;;;;;;;61.80;27.37;;;;;;;;;;5009404;28;20638;-76
2022/12/18 04:52:27;;;;;;;63.30;26.43;;;;;;;;;;4995669;28;20534;-76
2022/12/18 04:54:53;;;;;;;73.67;29.27;;;;;;;;;;5005823;28;20516;-76
2022/12/18 04:57:19;;;;;;;65.27;28.40;;;;;;;;;;5005453;28;20497;-76
2022/12/18 04:59:45;;;;;;;65.07;29.07;;;;;;;;;;5012898;28;20468;-76
2022/12/18 05:02:11;;;;;;;65.53;28.03;;;;;;;;;;5017482;28;21109;-76
2022/12/18 05:04:38;;;;;;;61.63;26.03;;;;;;;;;;5012991;28;20446;-75
2022/12/18 05:07:04;;;;;;;62.07;27.33;;;;;;;;;;5012698;28;20499;-76
2022/12/18 05:09:30;;;;;;;61.77;26.53;;;;;;;;;;5006456;28;20442;-75
2022/12/18 05:11:57;;;;;;;59.53;27.27;;;;;;;;;;5003382;28;20879;-75
2022/12/18 05:14:23;;;;;;;68.13;28.63;;;;;;;;;;5002323;28;20496;-76
2022/12/18 05:16:49;;;;;;;61.80;26.43;;;;;;;;;;5004472;28;20538;-76
2022/12/18 05:19:15;;;;;;;64.33;26.97;;;;;;;;;;5000197;28;20869;-76
2022/12/18 05:21:42;;;;;;;66.37;27.80;;;;;;;;;;5000962;28;20473;-75
2022/12/18 05:24:08;;;;;;;64.90;27.47;;;;;;;;;;5004531;28;20532;-76
2022/12/18 05:26:34;;;;;;;75.57;29.60;;;;;;;;;;4999188;28;20549;-76
2022/12/18 05:29:01;;;;;;;59.97;26.73;;;;;;;;;;5002038;28;20448;-73
2022/12/18 05:31:27;;;;;;;62.77;26.00;;;;;;;;;;5005913;28;20470;-75
2022/12/18 05:33:53;;;;;;;68.53;27.73;;;;;;;;;;5008366;28;20474;-76
2022/12/18 05:36:20;;;;;;;56.97;26.40;;;;;;;;;;4998137;28;20430;-76
2022/12/18 05:38:46;;;;;;;60.47;27.10;;;;;;;;;;4998628;28;20481;-76
2022/12/18 05:41:12;;;;;;;57.23;26.10;;;;;;;;;;5011884;28;20461;-76
2022/12/18 05:43:41;;;;;;;56.57;25.43;;;;;;;;;;5008147;28;20539;-77
2022/12/18 05:46:08;;;;;;;57.50;25.93;;;;;;;;;;5003298;28;20446;-77
2022/12/18 05:48:34;;;;;;;57.53;26.17;;;;;;;;;;4999837;28;20451;-75
2022/12/18 05:51:26;;;;;;;58.20;26.23;;;;;;;;;;5002658;28;20501;-76
2022/12/18 05:53:53;;;;;;;58.77;25.93;;;;;;;;;;4993843;28;20794;-75
2022/12/18 05:56:21;;;;;;;61.37;27.67;;;;;;;;;;4995604;28;20460;-76
2022/12/18 05:58:48;;;;;;;56.80;25.43;;;;;;;;;;5002963;28;20970;-78
2022/12/18 06:01:15;;;;;;;55.50;25.27;;;;;;;;;;5004458;28;20462;-75
2022/12/18 06:03:41;;;;;;;59.30;26.53;;;;;;;;;;5007137;28;20438;-76
2022/12/18 06:06:18;;;;;;;62.07;26.47;;;;;;;;;;5008455;28;20418;-74
2022/12/18 06:08:45;;;;;;;57.40;26.27;;;;;;;;;;5007470;28;20433;-76
2022/12/18 06:11:11;;;;;;;60.17;27.17;;;;;;;;;;5011554;28;20473;-75
2022/12/18 06:13:38;;;;;;;67.83;27.13;;;;;;;;;;5005381;28;20437;-76
2022/12/18 06:16:07;;;;;;;59.83;25.97;;;;;;;;;;5013822;28;20984;-75
2022/12/18 06:18:37;;;;;;;64.93;27.87;;;;;;;;;;5008288;28;20429;-75
2022/12/18 06:21:03;;;;;;;72.07;29.97;;;;;;;;;;5012194;28;20516;-75
2022/12/18 06:23:29;;;;;;;66.13;27.53;;;;;;;;;;5009291;28;20526;-75
2022/12/18 06:25:55;;;;;;;64.97;28.03;;;;;;;;;;5010468;28;20528;-75
2022/12/18 06:28:21;;;;;;;68.27;29.43;;;;;;;;;;5000709;28;20778;-77
2022/12/18 06:30:48;;;;;;;64.87;28.27;;;;;;;;;;5004769;28;20497;-76
2022/12/18 06:33:15;;;;;;;67.73;27.80;;;;;;;;;;5002353;28;20441;-76
2022/12/18 06:35:41;;;;;;;68.17;28.80;;;;;;;;;;5007935;28;20441;-76
2022/12/18 06:38:07;;;;;;;57.80;26.33;;;;;;;;;;5005058;28;20479;-76
2022/12/18 06:40:34;;;;;;;64.60;27.93;;;;;;;;;;5013768;28;20503;-77
2022/12/18 06:43:00;;;;;;;62.23;26.13;;;;;;;;;;5003176;28;20449;-76
2022/12/18 06:45:26;;;;;;;61.87;26.87;;;;;;;;;;5005246;28;20438;-76
2022/12/18 06:47:52;;;;;;;66.80;26.77;;;;;;;;;;5003080;28;20449;-75
2022/12/18 06:50:19;;;;;;;66.37;27.60;;;;;;;;;;5004175;28;20538;-76
2022/12/18 06:52:45;;;;;;;68.47;30.50;;;;;;;;;;5007835;28;20418;-76
2022/12/18 06:55:11;;;;;;;67.50;29.40;;;;;;;;;;5012785;28;20175;-75
2022/12/18 06:57:38;;;;;;;74.35;37.15;;;;;;;;;;5000676;28;20520;-73
2022/12/18 07:00:06;;;;;;;70.37;31.77;;;;;;;;;;5000357;28;20183;-73
2022/12/18 07:02:32;;;;;;;68.07;29.10;;;;;;;;;;5000942;28;20499;-73
2022/12/18 07:04:59;;;;;;;67.10;33.17;;;;;;;;;;5004582;28;20430;-73
2022/12/18 07:07:25;;;;;;;66.43;30.43;;;;;;;;;;5004586;28;20172;-73
2022/12/18 07:09:51;;;;;;;74.93;30.00;;;;;;;;;;5010273;28;20954;-73
2022/12/18 07:12:17;;;;;;;84.00;29.97;;;;;;;;;;5005785;28;20433;-73
2022/12/18 07:14:44;;;;;;;64.03;26.40;;;;;;;;;;5003209;28;20441;-73
2022/12/18 07:17:10;;;;;;;69.47;27.37;;;;;;;;;;5003806;28;20517;-72
2022/12/18 07:19:36;;;;;;;62.63;27.00;;;;;;;;;;5011874;28;20433;-73
2022/12/18 07:22:02;;;;;;;64.03;28.90;;;;;;;;;;5001375;28;20461;-73
2022/12/18 07:24:28;;;;;;;70.13;28.43;;;;;;;;;;5011110;28;20487;-72
2022/12/18 07:26:55;;;;;;;83.30;31.50;;;;;;;;;;5006671;28;20503;-74
2022/12/18 07:29:21;;;;;;;71.03;28.60;;;;;;;;;;4996950;28;20433;-73
2022/12/18 07:31:47;;;;;;;70.13;28.53;;;;;;;;;;5000397;28;20461;-73
2022/12/18 07:34:14;;;;;;;78.73;30.37;;;;;;;;;;4999396;28;20442;-73
2022/12/18 07:36:41;;;;;;;63.63;27.23;;;;;;;;;;5003399;28;21143;-73
2022/12/18 07:39:07;;;;;;;60.67;26.57;;;;;;;;;;5000679;28;20445;-73
2022/12/18 07:41:34;;;;;;;57.63;26.13;;;;;;;;;;5006507;28;20551;-73
2022/12/18 07:44:10;;;;;;;67.10;28.20;;;;;;;;;;5005859;28;20441;-73
2022/12/18 07:46:36;;;;;;;62.27;27.03;;;;;;;;;;4986704;28;20453;-72
2022/12/18 07:49:02;;;;;;;62.57;27.73;;;;;;;;;;5004045;28;20445;-73
2022/12/18 07:51:28;;;;;;;65.13;28.70;;;;;;;;;;5003232;28;20458;-74
2022/12/18 07:53:55;;;;;;;64.70;27.43;;;;;;;;;;5012402;28;20528;-79
2022/12/18 07:56:21;;;;;;;69.23;28.97;;;;;;;;;;5010259;28;20506;-74
2022/12/18 07:58:47;;;;;;;63.13;27.67;;;;;;;;;;5010299;28;21013;-79
2022/12/18 08:01:13;;;;;;;55.77;26.30;;;;;;;;;;4993758;28;20872;-78
2022/12/18 08:03:40;;;;;;;63.60;28.03;;;;;;;;;;4998659;28;20430;-75
2022/12/18 08:06:07;;;;;;;62.03;27.17;;;;;;;;;;5004411;28;20432;-75
2022/12/18 08:08:34;;;;;;;62.40;26.43;;;;;;;;;;4998786;28;20459;-76
2022/12/18 08:11:00;;;;;;;61.03;27.63;;;;;;;;;;4998653;28;20450;-75
2022/12/18 08:13:27;;;;;;;67.33;28.43;;;;;;;;;;4999920;28;20516;-76
2022/12/18 08:15:57;;;;;;;64.20;29.20;;;;;;;;;;4997046;28;20431;-75
2022/12/18 08:18:23;;;;;;;61.03;27.60;;;;;;;;;;4999250;28;20458;-75
2022/12/18 08:20:49;;;;;;;64.00;28.73;;;;;;;;;;4999430;28;20465;-76
2022/12/18 08:23:15;;;;;;;65.50;28.67;;;;;;;;;;4999071;28;20595;-75
2022/12/18 08:25:42;;;;;;;63.87;28.90;;;;;;;;;;4998696;28;20795;-75
2022/12/18 08:28:08;;;;;;;64.80;29.77;;;;;;;;;;4998897;28;20452;-75
2022/12/18 08:30:34;;;;;;;66.27;29.33;;;;;;;;;;4999277;28;20453;-75
2022/12/18 08:33:00;;;;;;;66.97;30.20;;;;;;;;;;4997848;28;20431;-75
2022/12/18 08:35:29;;;;;;;66.27;29.30;;;;;;;;;;4996540;28;20442;-75
2022/12/18 08:37:55;;;;;;;61.63;27.17;;;;;;;;;;4997900;28;20509;-75
2022/12/18 08:40:21;;;;;;;63.37;29.70;;;;;;;;;;4999538;28;20925;-75
2022/12/18 08:45:34;;;;;;;72.67;31.17;;;;;;;;;;5002137;28;20434;-77
2022/12/18 08:48:00;;;;;;;65.00;28.47;;;;;;;;;;5001199;28;20446;-77
2022/12/18 08:50:26;;;;;;;77.00;31.63;;;;;;;;;;5002285;28;20596;-78
2022/12/18 08:52:52;;;;;;;68.70;30.13;;;;;;;;;;5006454;28;20515;-78
2022/12/18 08:55:18;;;;;;;68.57;30.90;;;;;;;;;;5002496;28;20430;-78
2022/12/18 08:57:48;;;;;;;70.10;30.23;;;;;;;;;;4997527;28;20447;-76
2022/12/18 09:00:15;;;;;;;67.73;30.87;;;;;;;;;;5009796;28;20477;-77
2022/12/18 09:02:41;;;;;;;68.23;30.20;;;;;;;;;;5003478;28;20443;-78
2022/12/18 09:05:07;;;;;;;61.60;29.23;;;;;;;;;;4988896;28;20425;-78
2022/12/18 09:07:34;;;;;;;68.70;32.60;;;;;;;;;;5001957;28;20985;-77
2022/12/18 09:10:00;;;;;;;69.37;30.90;;;;;;;;;;4996305;28;20465;-76
2022/12/18 09:12:26;;;;;;;62.30;30.33;;;;;;;;;;4989573;28;20943;-76
2022/12/18 09:14:53;;;;;;;70.53;31.47;;;;;;;;;;5006971;28;20455;-76
2022/12/18 09:17:19;;;;;;;66.10;30.37;;;;;;;;;;5011167;28;20458;-76
2022/12/18 09:19:45;;;;;;;63.00;27.83;;;;;;;;;;5002395;28;20521;-76
2022/12/18 09:22:11;;;;;;;59.07;28.50;;;;;;;;;;5008302;28;20445;-76
2022/12/18 09:24:37;;;;;;;64.73;30.63;;;;;;;;;;4991607;28;20894;-79
2022/12/18 09:27:04;;;;;;;67.93;28.77;;;;;;;;;;5000522;28;21162;-78
2022/12/18 09:29:30;;;;;;;65.13;29.97;;;;;;;;;;4999960;28;20529;-77
2022/12/18 09:31:56;;;;;;;65.23;29.43;;;;;;;;;;5001777;28;20528;-77
2022/12/18 09:34:22;;;;;;;63.50;30.30;;;;;;;;;;5005984;28;20480;-78
2022/12/18 09:36:49;;;;;;;68.23;30.97;;;;;;;;;;5011926;28;20550;-78
2022/12/18 09:39:15;;;;;;;65.53;30.83;;;;;;;;;;5004361;28;20443;-77
2022/12/18 09:41:43;;;;;;;66.97;30.80;;;;;;;;;;5007437;28;20473;-77
2022/12/18 09:44:48;;;;;;;60.90;28.37;;;;;;;;;;4999167;28;20454;-77
2022/12/18 09:47:19;;;;;;;58.90;27.93;;;;;;;;;;4947389;29;20952;-76
2022/12/18 09:49:47;;;;;;;62.83;29.97;;;;;;;;;;4937737;28;20548;-78
2022/12/18 09:52:16;;;;;;;74.30;32.43;;;;;;;;;;4979884;28;20446;-78
2022/12/18 09:54:44;;;;;;;61.50;29.23;;;;;;;;;;5010830;28;20458;-78
2022/12/18 09:57:20;;;;;;;61.53;28.07;;;;;;;;;;5015783;28;20457;-78
2022/12/18 10:00:09;;;;;;;64.00;29.73;;;;;;;;;;5001649;28;20473;-76
2022/12/18 10:02:37;;;;;;;60.37;30.87;;;;;;;;;;5004632;28;20536;-76
2022/12/18 10:05:07;;;;;;;61.57;29.37;;;;;;;;;;5021495;28;20457;-76
2022/12/18 10:07:39;;;;;;;68.87;30.47;;;;;;;;;;5000640;28;20441;-76
2022/12/18 10:10:12;;;;;;;66.53;30.87;;;;;;;;;;5000769;28;21146;-76
2022/12/18 10:12:46;;;;;;;68.77;29.57;;;;;;;;;;5012393;28;20446;-76
2022/12/18 10:15:18;;;;;;;66.60;31.00;;;;;;;;;;5018483;28;20429;-78
2022/12/18 10:18:01;;;;;;;63.03;29.37;;;;;;;;;;4997194;28;21005;-77
2022/12/18 10:20:32;;;;;;;67.20;32.33;;;;;;;;;;4982678;28;20965;-77
2022/12/18 10:23:17;;;;;;;64.60;31.23;;;;;;;;;;5000729;28;20442;-77
2022/12/18 10:25:43;;;;;;;64.13;30.73;;;;;;;;;;4986517;28;20437;-77
2022/12/18 10:28:14;;;;;;;69.60;32.10;;;;;;;;;;5010237;28;20529;-77
2022/12/18 10:30:41;;;;;;;68.20;31.80;;;;;;;;;;4995691;28;20875;-77
2022/12/18 10:33:11;;;;;;;71.13;33.27;;;;;;;;;;4996314;28;20433;-77
2022/12/18 10:35:41;;;;;;;68.53;31.47;;;;;;;;;;5003443;28;21284;-77
2022/12/18 10:38:21;;;;;;;62.83;31.73;;;;;;;;;;5002728;28;20554;-77
2022/12/18 10:40:49;;;;;;;64.10;31.30;;;;;;;;;;4994168;28;20478;-76
2022/12/18 10:43:16;;;;;;;68.87;32.30;;;;;;;;;;4999469;28;20443;-76
2022/12/18 10:45:42;;;;;;;64.43;30.67;;;;;;;;;;5011606;28;20413;-76
2022/12/18 10:48:27;;;;;;;56.60;27.90;;;;;;;;;;5007099;28;20432;-77
2022/12/18 10:50:53;;;;;;;68.37;30.83;;;;;;;;;;4997492;28;20477;-76
2022/12/18 10:53:22;;;;;;;59.87;28.47;;;;;;;;;;5003666;28;20426;-76
2022/12/18 10:55:49;;;;;;;67.70;30.70;;;;;;;;;;5004870;28;20528;-77
2022/12/18 10:58:26;;;;;;;65.23;31.80;;;;;;;;;;5005734;28;20458;-77
2022/12/18 11:01:22;;;;;;;65.67;31.07;;;;;;;;;;5001702;28;20507;-77
2022/12/18 11:03:51;;;;;;;68.13;31.17;;;;;;;;;;4985082;28;20423;-76
2022/12/18 11:06:20;;;;;;;64.90;31.00;;;;;;;;;;5003641;28;20537;-77
2022/12/18 11:08:58;;;;;;;59.70;29.30;;;;;;;;;;5001549;28;20818;-77
2022/12/18 11:11:25;;;;;;;65.07;29.90;;;;;;;;;;5002996;28;20504;-77
2022/12/18 11:14:02;;;;;;;65.20;30.97;;;;;;;;;;5004588;28;20449;-77
2022/12/18 11:16:30;;;;;;;57.90;28.17;;;;;;;;;;5009387;28;20441;-77
2022/12/18 11:19:11;;;;;;;63.83;30.97;;;;;;;;;;5006066;28;20425;-77
2022/12/18 11:21:41;;;;;;;60.23;28.70;;;;;;;;;;4998649;28;20449;-77
2022/12/18 11:24:18;;;;;;;69.20;31.87;;;;;;;;;;5002228;28;20434;-77
2022/12/18 11:26:44;;;;;;;64.47;31.50;;;;;;;;;;5000257;28;20442;-77
2022/12/18 11:29:16;;;;;;;60.17;30.23;;;;;;;;;;5005257;28;20627;-77
2022/12/18 11:31:43;;;;;;;59.93;29.80;;;;;;;;;;4999894;28;20453;-77
2022/12/18 11:34:14;;;;;;;56.30;28.83;;;;;;;;;;4997849;28;20465;-77
2022/12/18 11:36:47;;;;;;;59.43;29.27;;;;;;;;;;5002864;28;20453;-77
2022/12/18 11:39:32;;;;;;;65.40;30.80;;;;;;;;;;4999955;28;20450;-77
2022/12/18 11:42:11;;;;;;;59.57;29.27;;;;;;;;;;4998727;28;20474;-77
2022/12/18 11:44:58;;;;;;;60.87;30.23;;;;;;;;;;4992219;28;20444;-75
2022/12/18 11:47:36;;;;;;;68.37;31.90;;;;;;;;;;5002851;28;20426;-79
2022/12/18 11:50:03;;;;;;;64.60;30.33;;;;;;;;;;4994869;28;20973;-74
2022/12/18 11:52:39;;;;;;;63.43;31.50;;;;;;;;;;4998940;28;20925;-76
2022/12/18 11:55:16;;;;;;;65.97;31.23;;;;;;;;;;5004729;28;20488;-76
2022/12/18 11:57:42;;;;;;;66.13;31.93;;;;;;;;;;5001061;28;21060;-76
2022/12/18 12:00:19;;;;;;;67.03;31.83;;;;;;;;;;5001659;28;20449;-76
2022/12/18 12:02:57;;;;;;;70.30;33.03;;;;;;;;;;5009898;28;20452;-76
2022/12/18 12:05:30;;;;;;;64.13;31.97;;;;;;;;;;5002933;28;20450;-77
2022/12/18 12:07:56;;;;;;;60.87;31.03;;;;;;;;;;5004699;28;20443;-76
2022/12/18 12:10:41;;;;;;;64.20;32.27;;;;;;;;;;5006269;28;20462;-76
2022/12/18 12:13:18;;;;;;;65.73;32.27;;;;;;;;;;5002170;28;20438;-77
2022/12/18 12:15:56;;;;;;;70.03;33.07;;;;;;;;;;5008506;28;20505;-77
2022/12/18 12:18:31;;;;;;;69.00;33.93;;;;;;;;;;5002592;28;20469;-76
2022/12/18 12:20:58;;;;;;;72.53;34.23;;;;;;;;;;5000930;28;20443;-77
2022/12/18 12:23:33;;;;;;;72.17;33.30;;;;;;;;;;5000620;28;20434;-77
2022/12/18 12:26:06;;;;;;;62.67;31.97;;;;;;;;;;5010261;28;20837;-76
2022/12/18 12:28:47;;;;;;;65.13;32.67;;;;;;;;;;5014753;28;20433;-77
2022/12/18 12:31:16;;;;;;;76.47;35.83;;;;;;;;;;5010077;28;20466;-77
2022/12/18 12:33:45;;;;;;;74.83;35.17;;;;;;;;;;5006759;28;21014;-77
2022/12/18 12:36:24;;;;;;;69.87;36.40;;;;;;;;;;4997723;28;20803;-77
2022/12/18 12:38:54;;;;;;;70.37;35.37;;;;;;;;;;4996158;28;20529;-77
2022/12/18 12:44:09;;;;;;;68.10;33.07;;;;;;;;;;5008074;28;20945;-77
2022/12/18 12:46:38;;;;;;;68.33;32.67;;;;;;;;;;5006209;28;20928;-77
2022/12/18 12:49:10;;;;;;;65.97;33.17;;;;;;;;;;5014129;28;20431;-76
2022/12/18 12:51:38;;;;;;;63.33;32.67;;;;;;;;;;5006063;28;20450;-73
2022/12/18 12:54:06;;;;;;;61.20;32.97;;;;;;;;;;4999665;28;21004;-73
2022/12/18 12:56:55;;;;;;;63.23;32.37;;;;;;;;;;5003012;28;20813;-75
2022/12/18 12:59:42;;;;;;;68.73;33.70;;;;;;;;;;5001069;28;20448;-76
2022/12/18 13:02:19;;;;;;;68.20;34.33;;;;;;;;;;5007866;28;20461;-76
2022/12/18 13:04:50;;;;;;;67.50;33.97;;;;;;;;;;5009410;28;20429;-76
2022/12/18 13:07:18;;;;;;;61.33;32.47;;;;;;;;;;5012890;28;20456;-76
2022/12/18 13:10:03;;;;;;;64.73;33.63;;;;;;;;;;5004568;28;20443;-75
2022/12/18 13:15:41;;;;;;;70.03;36.87;;;;;;;;;;5013545;28;20429;-76
2022/12/18 13:18:10;;;;;;;71.77;34.93;;;;;;;;;;4931155;29;20481;-76
2022/12/18 13:20:37;;;;;;;73.30;36.20;;;;;;;;;;4999860;28;20566;-76
2022/12/18 13:23:22;;;;;;;66.30;34.40;;;;;;;;;;5002699;28;20418;-76
2022/12/18 13:25:49;;;;;;;70.27;35.37;;;;;;;;;;5009457;28;20441;-76
2022/12/18 13:28:17;;;;;;;64.77;34.90;;;;;;;;;;5000243;28;20445;-76
2022/12/18 13:30:46;;;;;;;71.30;35.50;;;;;;;;;;5001402;28;22430;-76
2022/12/18 13:33:18;;;;;;;72.00;36.07;;;;;;;;;;5007350;28;20464;-76
2022/12/18 13:35:44;;;;;;;69.67;35.73;;;;;;;;;;5005493;28;20432;-76
2022/12/18 13:38:24;;;;;;;68.57;36.50;;;;;;;;;;5000952;28;20571;-76
2022/12/18 13:40:50;;;;;;;65.73;34.43;;;;;;;;;;4997648;28;20461;-76
2022/12/18 13:43:22;;;;;;;64.93;34.50;;;;;;;;;;5001844;28;20927;-76
2022/12/18 13:46:06;;;;;;;64.03;34.40;;;;;;;;;;4999037;28;20517;-76
2022/12/18 13:48:37;;;;;;;66.33;33.50;;;;;;;;;;4999000;28;20449;-75
2022/12/18 13:51:08;;;;;;;64.43;33.73;;;;;;;;;;5006791;28;20498;-75
2022/12/18 13:53:52;;;;;;;60.40;32.97;;;;;;;;;;5013246;28;20496;-75
2022/12/18 13:56:22;;;;;;;64.10;32.80;;;;;;;;;;5003183;28;20441;-76
2022/12/18 13:59:04;;;;;;;63.47;33.33;;;;;;;;;;5001945;28;20544;-76
2022/12/18 14:01:30;;;;;;;64.80;33.67;;;;;;;;;;5003979;28;21130;-75
2022/12/18 14:04:10;;;;;;;65.00;33.87;;;;;;;;;;5002811;28;20498;-75
2022/12/18 14:06:36;;;;;;;66.37;34.10;;;;;;;;;;5008882;28;20442;-76
2022/12/18 14:09:03;;;;;;;57.90;31.60;;;;;;;;;;5007029;28;20438;-76
2022/12/18 14:11:30;;;;;;;61.87;33.30;;;;;;;;;;5003522;28;20977;-75
2022/12/18 14:13:56;;;;;;;66.30;33.67;;;;;;;;;;5004918;28;21198;-76
2022/12/18 14:16:23;;;;;;;64.33;34.07;;;;;;;;;;5003918;28;20798;-76
2022/12/18 14:18:55;;;;;;;65.70;32.97;;;;;;;;;;5004638;28;20448;-75
2022/12/18 14:21:28;;;;;;;57.40;30.73;;;;;;;;;;4999473;28;20997;-76
2022/12/18 14:24:14;;;;;;;70.90;34.07;;;;;;;;;;5002208;28;20474;-76
2022/12/18 14:26:40;;;;;;;64.37;32.80;;;;;;;;;;5000986;28;20433;-76
2022/12/18 14:29:19;;;;;;;66.10;33.90;;;;;;;;;;4998511;28;20415;-75
2022/12/18 14:31:45;;;;;;;63.87;32.03;;;;;;;;;;5011134;28;20572;-75
2022/12/18 14:34:19;;;;;;;60.20;31.87;;;;;;;;;;5006609;28;20437;-75
2022/12/18 14:36:55;;;;;;;65.90;34.63;;;;;;;;;;5000663;28;20532;-76
2022/12/18 14:39:23;;;;;;;63.70;32.27;;;;;;;;;;5004178;28;20446;-75
2022/12/18 14:41:50;;;;;;;60.33;32.40;;;;;;;;;;5010945;28;20458;-76
2022/12/18 14:44:16;;;;;;;63.47;32.70;;;;;;;;;;5006463;28;20996;-76